createdAt,value
2023-01-28T00:01:16.847Z,67.14
2023-01-28T00:06:19.126Z,66.98
2023-01-28T00:11:22.522Z,67.24
2023-01-28T00:16:27.419Z,67.30
2023-01-28T00:21:29.215Z,67.01
2023-01-28T00:26:30.939Z,66.89
2023-01-28T00:31:35.265Z,66.03
2023-01-28T00:36:39.388Z,65.98
2023-01-28T00:41:41.135Z,66.33
2023-01-28T00:46:42.854Z,66.89
2023-01-28T00:51:44.596Z,67.08
2023-01-28T00:56:46.429Z,66.89
2023-01-28T01:01:48.351Z,66.20
2023-01-28T01:06:50.133Z,66.17
2023-01-28T01:11:51.842Z,66.19
2023-01-28T01:16:53.720Z,65.96
2023-01-28T01:21:57.040Z,66.46
2023-01-28T01:26:58.777Z,66.43
2023-01-28T01:32:00.907Z,66.42
2023-01-28T01:37:03.933Z,66.80
2023-01-28T01:42:11.849Z,66.77
2023-01-28T01:47:16.859Z,66.63
2023-01-28T01:52:24.103Z,66.91
2023-01-28T01:57:32.712Z,66.92
2023-01-28T02:02:43.073Z,66.51
2023-01-28T02:07:46.895Z,66.27
2023-01-28T02:12:58.144Z,66.18
2023-01-28T02:18:01.321Z,66.30
2023-01-28T02:23:14.304Z,66.40
2023-01-28T02:28:43.866Z,65.82
2023-01-28T02:33:46.437Z,66.16
2023-01-28T02:38:51.960Z,66.58
2023-01-28T02:43:54.174Z,66.61
2023-01-28T02:48:56.417Z,66.62
2023-01-28T02:54:08.105Z,66.82
2023-01-28T02:59:31.003Z,66.78
2023-01-28T03:05:02.622Z,67.04
2023-01-28T03:10:09.377Z,67.07
2023-01-28T03:15:35.719Z,67.18
2023-01-28T03:21:08.912Z,67.16
2023-01-28T03:26:33.385Z,67.18
2023-01-28T03:31:56.064Z,67.53
2023-01-28T03:36:59.756Z,67.62
2023-01-28T03:42:22.420Z,67.35
2023-01-28T03:47:36.823Z,67.54
2023-01-28T03:52:40.108Z,67.50
2023-01-28T03:57:50.651Z,67.40
2023-01-28T04:02:52.405Z,67.40
2023-01-28T04:07:55.904Z,66.99
2023-01-28T04:13:07.765Z,67.09
2023-01-28T04:18:10.056Z,67.04
2023-01-28T04:23:12.395Z,66.80
2023-01-28T04:28:14.058Z,66.48
2023-01-28T04:33:15.922Z,66.36
2023-01-28T04:38:43.677Z,66.25
2023-01-28T04:44:03.234Z,65.79
2023-01-28T04:49:25.062Z,66.41
2023-01-28T04:54:42.784Z,66.46
2023-01-28T04:59:44.765Z,66.56
2023-01-28T05:04:47.370Z,65.87
2023-01-28T05:10:04.220Z,66.18
2023-01-28T05:15:07.042Z,65.88
2023-01-28T05:20:10.833Z,66.03
2023-01-28T05:25:13.517Z,65.84
2023-01-28T05:30:16.365Z,66.22
2023-01-28T05:35:18.862Z,65.80
2023-01-28T05:40:21.294Z,65.83
2023-01-28T05:45:23.303Z,66.17
2023-01-28T05:50:37.632Z,66.30
2023-01-28T05:55:56.497Z,66.04
2023-01-28T06:00:58.653Z,65.63
2023-01-28T06:06:09.136Z,65.94
2023-01-28T06:11:11.002Z,65.97
2023-01-28T06:16:13.589Z,66.43
2023-01-28T06:21:34.169Z,65.95
2023-01-28T06:26:35.941Z,66.16
2023-01-28T06:31:37.891Z,66.95
2023-01-28T06:36:39.591Z,67.01
2023-01-28T06:41:41.389Z,67.65
2023-01-28T06:46:43.466Z,67.78
2023-01-28T06:51:45.274Z,68.35
2023-01-28T06:56:46.919Z,68.58
2023-01-28T07:01:48.649Z,68.39
2023-01-28T07:06:50.477Z,68.72
2023-01-28T07:11:52.273Z,68.65
2023-01-28T07:16:54.109Z,68.41
2023-01-28T07:21:58.336Z,68.40
2023-01-28T07:27:00.005Z,68.14
2023-01-28T07:32:02.283Z,67.65
2023-01-28T07:37:04.096Z,67.68
2023-01-28T07:42:06.512Z,67.25
2023-01-28T07:47:12.711Z,66.83
2023-01-28T07:52:15.385Z,67.20
2023-01-28T07:57:23.366Z,66.67
2023-01-28T08:02:25.157Z,65.96
2023-01-28T08:07:27.835Z,65.60
2023-01-28T08:12:29.719Z,64.63
2023-01-28T08:17:31.945Z,64.88
2023-01-28T08:22:33.595Z,64.26
2023-01-28T08:27:35.305Z,64.29
2023-01-28T08:32:37.993Z,63.90
2023-01-28T08:37:39.662Z,63.65
2023-01-28T08:42:47.306Z,63.39
2023-01-28T08:47:51.013Z,63.28
2023-01-28T08:52:57.522Z,63.08
2023-01-28T08:58:03.792Z,62.88
2023-01-28T09:03:06.658Z,62.81
2023-01-28T09:08:11.288Z,62.49
2023-01-28T09:13:15.920Z,62.93
2023-01-28T09:18:18.183Z,62.63
2023-01-28T09:23:19.889Z,62.61
2023-01-28T09:28:21.547Z,61.71
2023-01-28T09:33:23.251Z,61.53
2023-01-28T09:38:24.902Z,61.00
2023-01-28T09:43:35.862Z,60.33
2023-01-28T09:48:42.144Z,60.34
2023-01-28T09:53:49.953Z,60.63
2023-01-28T09:58:52.282Z,60.63
2023-01-28T10:04:06.433Z,60.85
2023-01-28T10:09:33.011Z,60.30
2023-01-28T10:15:05.085Z,59.34
2023-01-28T10:20:20.908Z,58.53
2023-01-28T10:25:26.050Z,58.57
2023-01-28T10:30:31.778Z,57.58
2023-01-28T10:35:38.571Z,58.55
2023-01-28T10:40:42.154Z,58.14
2023-01-28T10:45:55.482Z,58.42
2023-01-28T10:51:01.955Z,57.59
2023-01-28T10:56:28.097Z,57.51
2023-01-28T11:01:40.220Z,57.93
2023-01-28T11:06:41.891Z,57.66
2023-01-28T11:11:43.541Z,57.49
2023-01-28T11:16:45.508Z,57.38
2023-01-28T11:21:54.548Z,57.68
2023-01-28T11:26:58.729Z,57.82
2023-01-28T11:32:01.492Z,58.16
2023-01-28T11:37:12.507Z,57.53
2023-01-28T11:42:22.171Z,57.24
2023-01-28T11:48:00.803Z,57.37
2023-01-28T11:53:32.725Z,57.90
2023-01-28T11:59:00.700Z,57.93
2023-01-28T12:04:26.801Z,57.75
2023-01-28T12:09:49.980Z,57.91
2023-01-28T12:15:19.929Z,57.80
2023-01-28T12:20:21.569Z,58.04
2023-01-28T12:25:42.753Z,57.62
2023-01-28T12:31:19.549Z,57.74
2023-01-28T12:36:44.213Z,57.67
2023-01-28T12:41:51.097Z,58.38
2023-01-28T12:46:57.582Z,58.22
2023-01-28T12:52:05.937Z,57.40
2023-01-28T12:57:13.455Z,58.35
2023-01-28T13:02:31.022Z,58.60
2023-01-28T13:07:40.833Z,58.59
2023-01-28T13:12:43.513Z,59.03
2023-01-28T13:18:05.567Z,59.20
2023-01-28T13:23:31.969Z,59.72
2023-01-28T13:28:33.770Z,60.07
2023-01-28T13:33:38.518Z,60.31
2023-01-28T13:38:40.513Z,60.99
2023-01-28T13:43:42.707Z,61.42
2023-01-28T13:48:54.938Z,61.84
2023-01-28T13:54:07.496Z,62.03
2023-01-28T13:59:27.925Z,62.30
2023-01-28T14:04:41.912Z,62.57
2023-01-28T14:09:46.926Z,62.95
2023-01-28T14:15:11.639Z,63.14
2023-01-28T14:20:26.438Z,63.47
2023-01-28T14:25:37.091Z,63.53
2023-01-28T14:30:54.599Z,63.55
2023-01-28T14:35:56.946Z,63.95
2023-01-28T14:40:58.679Z,63.83
2023-01-28T14:46:09.493Z,63.87
2023-01-28T14:51:36.151Z,64.76
2023-01-28T14:56:56.273Z,65.08
2023-01-28T15:01:59.872Z,66.28
2023-01-28T15:07:15.930Z,67.13
2023-01-28T15:12:18.107Z,67.32
2023-01-28T15:17:28.158Z,68.05
2023-01-28T15:22:30.177Z,68.57
2023-01-28T15:27:32.458Z,68.34
2023-01-28T15:32:34.181Z,68.50
2023-01-28T15:37:36.901Z,68.91
2023-01-28T15:42:40.153Z,69.53
2023-01-28T15:47:41.920Z,69.39
2023-01-28T15:52:45.407Z,69.92
2023-01-28T15:57:47.036Z,70.51
2023-01-28T16:02:51.372Z,70.88
2023-01-28T16:07:54.410Z,71.40
2023-01-28T16:13:05.089Z,72.21
2023-01-28T16:18:07.312Z,73.19
2023-01-28T16:23:24.540Z,74.23
2023-01-28T16:28:26.775Z,75.09
2023-01-28T16:33:28.511Z,75.39
2023-01-28T16:38:30.889Z,76.44
2023-01-28T16:48:39.513Z,77.67
2023-01-28T16:53:42.650Z,78.14
2023-01-28T16:58:46.701Z,78.28
2023-01-28T17:03:48.684Z,78.88
2023-01-28T17:08:50.698Z,79.19
2023-01-28T17:13:52.343Z,79.56
2023-01-28T17:18:54.749Z,79.23
2023-01-28T17:23:58.253Z,79.44
2023-01-28T17:29:01.194Z,79.47
2023-01-28T17:34:03.182Z,79.20
2023-01-28T17:39:07.445Z,79.61
2023-01-28T17:44:14.938Z,79.62
2023-01-28T17:49:16.627Z,79.67
2023-01-28T17:54:19.030Z,79.45
2023-01-28T17:59:22.655Z,79.53
2023-01-28T18:04:26.017Z,79.72
2023-01-28T18:09:27.881Z,79.85
2023-01-28T18:14:29.771Z,80.09
2023-01-28T18:19:32.049Z,80.29
2023-01-28T18:24:34.003Z,80.57
2023-01-28T18:29:35.933Z,80.55
2023-01-28T18:34:37.930Z,81.02
2023-01-28T18:39:39.858Z,80.95
2023-01-28T18:44:41.797Z,80.76
2023-01-28T18:49:43.735Z,81.12
2023-01-28T18:54:45.680Z,81.53
2023-01-28T18:59:47.669Z,81.67
2023-01-28T19:04:49.382Z,81.43
2023-01-28T19:09:51.325Z,81.68
2023-01-28T19:14:53.113Z,81.57
2023-01-28T19:19:54.928Z,81.28
2023-01-28T19:24:56.628Z,81.53
2023-01-28T19:29:58.493Z,81.50
2023-01-28T19:35:00.359Z,81.37
2023-01-28T19:40:02.074Z,81.74
2023-01-28T19:45:06.061Z,81.31
2023-01-28T19:50:08.662Z,81.11
2023-01-28T19:55:10.638Z,81.52
2023-01-28T20:00:12.741Z,80.78
2023-01-28T20:05:14.882Z,80.75
2023-01-28T20:10:17.783Z,81.29
2023-01-28T20:15:19.510Z,80.88
2023-01-28T20:20:21.419Z,80.67
2023-01-28T20:25:23.398Z,80.97
2023-01-28T20:30:26.983Z,80.61
2023-01-28T20:35:28.810Z,80.21
2023-01-28T20:40:31.923Z,80.39
2023-01-28T20:45:33.867Z,80.26
2023-01-28T20:50:36.306Z,80.10
2023-01-28T20:55:38.306Z,80.36
2023-01-28T21:00:40.009Z,79.65
2023-01-28T21:05:44.729Z,80.09
2023-01-28T21:10:46.645Z,80.12
2023-01-28T21:15:53.196Z,80.11
2023-01-28T21:20:55.809Z,79.96
2023-01-28T21:26:02.115Z,79.87
2023-01-28T21:31:25.351Z,79.87
2023-01-28T21:36:27.860Z,79.29
2023-01-28T21:41:29.584Z,79.44
2023-01-28T21:46:33.680Z,78.98
2023-01-28T21:51:36.381Z,78.98
2023-01-28T21:56:38.482Z,78.91
2023-01-28T22:01:40.199Z,79.22
2023-01-28T22:06:42.604Z,78.71
2023-01-28T22:11:45.080Z,78.50
2023-01-28T22:16:49.461Z,78.81
2023-01-28T22:21:51.493Z,78.33
2023-01-28T22:26:54.329Z,78.03
2023-01-28T22:31:56.955Z,78.05
2023-01-28T22:36:58.709Z,77.71
2023-01-28T22:42:00.674Z,77.48
2023-01-28T22:47:02.913Z,77.32
2023-01-28T22:52:04.697Z,77.47
2023-01-28T22:57:06.499Z,77.63
2023-01-28T23:02:08.785Z,77.13
2023-01-28T23:07:12.526Z,76.95
2023-01-28T23:12:14.339Z,76.84
2023-01-28T23:17:34.598Z,76.87
2023-01-28T23:22:55.020Z,76.58
2023-01-28T23:27:57.004Z,76.93
2023-01-28T23:33:01.492Z,76.66
2023-01-28T23:38:03.334Z,76.31
2023-01-28T23:43:05.779Z,76.22
2023-01-28T23:48:26.760Z,75.76
2023-01-28T23:53:28.387Z,76.41
2023-01-28T23:58:42.969Z,75.85
